createdAt,value
2022-12-31T00:01:00.592Z,0.20
2022-12-31T00:04:03.714Z,0.65
2022-12-31T00:07:06.473Z,0.20
2022-12-31T00:10:10.993Z,0.40
2022-12-31T00:13:14.626Z,0.47
2022-12-31T00:16:19.488Z,0.38
2022-12-31T00:19:22.450Z,0.40
2022-12-31T00:22:25.181Z,0.38
2022-12-31T00:25:29.544Z,0.22
2022-12-31T00:28:32.707Z,0.35
2022-12-31T00:31:37.670Z,0.20
2022-12-31T00:34:40.385Z,0.30
2022-12-31T00:37:43.003Z,0.17
2022-12-31T00:40:47.393Z,0.40
2022-12-31T00:43:50.688Z,0.30
2022-12-31T00:46:53.941Z,0.20
2022-12-31T00:49:56.587Z,0.30
2022-12-31T00:52:59.285Z,0.30
2022-12-31T00:56:05.240Z,0.30
2022-12-31T00:59:07.885Z,0.25
2022-12-31T01:02:10.670Z,0.28
2022-12-31T01:05:13.562Z,0.20
2022-12-31T01:08:16.222Z,0.30
2022-12-31T01:11:22.256Z,0.30
2022-12-31T01:14:25.355Z,0.38
2022-12-31T01:17:28.222Z,0.20
2022-12-31T01:20:31.633Z,0.30
2022-12-31T01:23:34.800Z,0.22
2022-12-31T01:26:39.496Z,0.40
2022-12-31T01:29:42.142Z,0.30
2022-12-31T01:32:44.797Z,0.30
2022-12-31T01:35:48.020Z,0.20
2022-12-31T01:38:51.533Z,0.22
2022-12-31T01:41:55.537Z,0.20
2022-12-31T01:44:58.216Z,0.40
2022-12-31T01:48:01.673Z,0.40
2022-12-31T01:51:06.136Z,0.47
2022-12-31T01:54:11.744Z,0.40
2022-12-31T01:57:16.839Z,0.15
2022-12-31T02:00:19.629Z,0.30
2022-12-31T02:03:24.106Z,0.28
2022-12-31T02:06:33.403Z,0.30
2022-12-31T02:09:39.868Z,0.22
2022-12-31T02:12:43.970Z,0.60
2022-12-31T02:15:57.745Z,0.30
2022-12-31T02:19:19.638Z,0.20
2022-12-31T02:22:37.358Z,0.35
2022-12-31T02:26:06.057Z,0.30
2022-12-31T02:29:38.890Z,0.30
2022-12-31T02:32:54.016Z,0.50
2022-12-31T02:35:59.991Z,0.40
2022-12-31T02:39:05.120Z,0.30
2022-12-31T02:42:07.818Z,0.30
2022-12-31T02:45:13.218Z,0.40
2022-12-31T02:48:29.522Z,0.25
2022-12-31T02:51:40.495Z,0.20
2022-12-31T02:54:49.099Z,0.28
2022-12-31T02:57:56.630Z,0.30
2022-12-31T03:01:17.537Z,0.38
2022-12-31T03:04:36.263Z,0.55
2022-12-31T03:07:41.629Z,0.30
2022-12-31T03:10:44.241Z,0.30
2022-12-31T03:13:45.931Z,0.25
2022-12-31T03:16:49.116Z,0.40
2022-12-31T03:20:11.480Z,0.22
2022-12-31T03:23:16.826Z,0.70
2022-12-31T03:26:18.524Z,0.25
2022-12-31T03:29:21.149Z,0.40
2022-12-31T03:32:26.296Z,0.30
2022-12-31T03:35:32.414Z,0.40
2022-12-31T03:38:35.227Z,0.50
2022-12-31T03:41:37.877Z,0.35
2022-12-31T03:44:40.506Z,0.30
2022-12-31T03:47:43.174Z,0.40
2022-12-31T03:50:47.558Z,0.30
2022-12-31T03:53:50.206Z,0.20
2022-12-31T03:56:58.244Z,0.20
2022-12-31T04:00:03.332Z,0.30
2022-12-31T04:03:05.991Z,0.30
2022-12-31T04:06:10.203Z,0.32
2022-12-31T04:09:13.167Z,0.30
2022-12-31T04:12:15.882Z,0.35
2022-12-31T04:15:21.282Z,0.40
2022-12-31T04:18:23.950Z,0.30
2022-12-31T04:21:34.641Z,0.30
2022-12-31T04:24:38.217Z,0.30
2022-12-31T04:27:41.378Z,0.20
2022-12-31T04:30:44.412Z,0.22
2022-12-31T04:33:47.067Z,0.40
2022-12-31T04:36:51.463Z,0.30
2022-12-31T04:39:54.147Z,0.30
2022-12-31T04:42:56.798Z,0.30
2022-12-31T04:45:59.550Z,0.28
2022-12-31T04:49:02.783Z,0.30
2022-12-31T04:52:06.821Z,0.30
2022-12-31T04:55:09.791Z,0.20
2022-12-31T04:58:12.700Z,0.25
2022-12-31T05:01:16.090Z,0.28
2022-12-31T05:04:18.819Z,0.20
2022-12-31T05:07:23.111Z,0.28
2022-12-31T05:10:25.765Z,0.30
2022-12-31T05:13:33.153Z,0.30
2022-12-31T05:16:36.817Z,0.25
2022-12-31T05:19:39.479Z,0.17
2022-12-31T05:22:43.485Z,0.30
2022-12-31T05:25:47.807Z,0.22
2022-12-31T05:28:50.942Z,0.20
2022-12-31T05:31:53.609Z,0.10
2022-12-31T05:34:56.906Z,0.40
2022-12-31T05:38:02.130Z,0.20
2022-12-31T05:41:07.380Z,0.20
2022-12-31T05:44:11.830Z,0.22
2022-12-31T05:47:14.610Z,0.30
2022-12-31T05:50:17.568Z,0.32
2022-12-31T05:53:21.665Z,0.30
2022-12-31T05:56:24.683Z,0.38
2022-12-31T05:59:27.753Z,0.25
2022-12-31T06:02:30.473Z,0.30
2022-12-31T06:05:33.138Z,0.40
2022-12-31T06:08:37.230Z,0.28
2022-12-31T06:11:39.890Z,0.30
2022-12-31T06:14:45.720Z,0.35
2022-12-31T06:17:48.685Z,0.30
2022-12-31T06:20:51.717Z,0.40
2022-12-31T06:23:56.025Z,0.25
2022-12-31T06:26:58.753Z,0.40
2022-12-31T06:30:01.777Z,0.30
2022-12-31T06:33:04.433Z,0.20
2022-12-31T06:36:09.380Z,0.10
2022-12-31T06:39:13.424Z,0.25
2022-12-31T06:42:16.118Z,0.22
2022-12-31T06:45:18.895Z,0.28
2022-12-31T06:48:21.642Z,0.25
2022-12-31T06:51:24.345Z,0.30
2022-12-31T06:54:28.372Z,0.20
2022-12-31T06:57:31.436Z,0.40
2022-12-31T07:00:34.813Z,0.30
2022-12-31T07:03:42.631Z,0.30
2022-12-31T07:06:53.394Z,0.20
2022-12-31T07:10:03.534Z,0.20
2022-12-31T07:13:25.538Z,0.30
2022-12-31T07:16:37.725Z,0.30
2022-12-31T07:19:55.540Z,0.30
2022-12-31T07:23:00.828Z,0.30
2022-12-31T07:26:10.206Z,0.35
2022-12-31T07:29:20.384Z,0.28
2022-12-31T07:32:33.186Z,0.43
2022-12-31T07:35:42.957Z,0.40
2022-12-31T07:38:54.450Z,0.30
2022-12-31T07:42:06.145Z,0.10
2022-12-31T07:45:17.693Z,0.20
2022-12-31T07:48:25.063Z,0.30
2022-12-31T07:51:28.538Z,0.68
2022-12-31T07:54:31.180Z,0.30
2022-12-31T07:57:43.816Z,0.28
2022-12-31T08:00:46.949Z,0.30
2022-12-31T08:03:57.119Z,0.40
2022-12-31T08:07:12.356Z,0.20
2022-12-31T08:10:20.624Z,0.17
2022-12-31T08:13:24.945Z,0.40
2022-12-31T08:16:28.216Z,0.60
2022-12-31T08:19:33.134Z,0.20
2022-12-31T08:22:54.760Z,0.30
2022-12-31T08:26:16.571Z,0.30
2022-12-31T08:29:34.137Z,0.40
2022-12-31T08:32:44.113Z,0.30
2022-12-31T08:36:00.050Z,0.38
2022-12-31T08:39:11.601Z,0.57
2022-12-31T08:42:23.095Z,0.40
2022-12-31T08:45:33.278Z,0.30
2022-12-31T08:48:41.506Z,0.35
2022-12-31T08:51:44.254Z,0.38
2022-12-31T08:54:47.768Z,0.30
2022-12-31T08:58:04.000Z,0.30
2022-12-31T09:01:09.505Z,0.38
2022-12-31T09:04:19.893Z,0.30
2022-12-31T09:07:30.112Z,0.32
2022-12-31T09:10:39.825Z,0.60
2022-12-31T09:14:01.941Z,0.30
2022-12-31T09:17:14.534Z,0.40
2022-12-31T09:20:23.973Z,0.30
2022-12-31T09:23:28.279Z,0.38
2022-12-31T09:26:45.517Z,0.40
2022-12-31T09:29:55.435Z,0.52
2022-12-31T09:33:06.143Z,0.52
2022-12-31T09:36:20.197Z,0.40
2022-12-31T09:39:30.515Z,0.47
2022-12-31T09:43:00.895Z,0.35
2022-12-31T09:46:25.950Z,0.40
2022-12-31T09:50:11.141Z,0.40
2022-12-31T09:53:38.643Z,0.38
2022-12-31T09:56:46.917Z,0.35
2022-12-31T09:59:58.997Z,0.22
2022-12-31T10:03:26.485Z,0.28
2022-12-31T10:06:44.634Z,0.30
2022-12-31T10:10:01.029Z,0.40
2022-12-31T10:13:25.960Z,0.30
2022-12-31T10:16:59.576Z,0.20
2022-12-31T10:20:17.063Z,0.20
2022-12-31T10:23:47.070Z,0.30
2022-12-31T10:27:14.127Z,0.30
2022-12-31T10:30:19.134Z,0.68
2022-12-31T10:33:39.261Z,0.40
2022-12-31T10:36:53.790Z,0.40
2022-12-31T10:40:08.355Z,0.22
2022-12-31T10:44:01.261Z,0.30
2022-12-31T10:47:26.276Z,0.30
2022-12-31T10:50:58.607Z,0.40
2022-12-31T10:54:27.704Z,0.20
2022-12-31T10:58:07.636Z,0.20
2022-12-31T11:01:18.661Z,0.30
2022-12-31T11:04:57.945Z,0.30
2022-12-31T11:08:27.235Z,0.22
2022-12-31T11:11:36.640Z,0.30
2022-12-31T11:15:00.962Z,0.45
2022-12-31T11:18:14.707Z,0.35
2022-12-31T11:21:28.490Z,0.20
2022-12-31T11:24:43.935Z,0.32
2022-12-31T11:28:00.517Z,0.03
2022-12-31T11:31:16.422Z,0.30
2022-12-31T11:34:45.278Z,0.50
2022-12-31T11:37:50.221Z,0.20
2022-12-31T11:41:01.191Z,0.10
2022-12-31T11:44:16.070Z,0.20
2022-12-31T11:48:28.387Z,0.30
2022-12-31T11:51:37.820Z,0.20
2022-12-31T11:54:53.428Z,0.20
2022-12-31T11:58:00.181Z,0.25
2022-12-31T12:01:10.047Z,0.30
2022-12-31T12:04:14.152Z,0.30
2022-12-31T12:07:17.576Z,0.20
2022-12-31T12:10:29.092Z,0.52
2022-12-31T12:13:36.694Z,0.38
2022-12-31T12:16:39.482Z,0.20
2022-12-31T12:19:46.579Z,0.30
2022-12-31T12:22:51.555Z,0.30
2022-12-31T12:25:54.874Z,0.40
2022-12-31T12:29:01.739Z,0.17
2022-12-31T12:32:06.283Z,0.10
2022-12-31T12:35:21.035Z,0.20
2022-12-31T12:38:24.650Z,0.28
2022-12-31T12:41:27.720Z,0.30
2022-12-31T12:44:30.833Z,0.20
2022-12-31T12:47:34.922Z,0.10
2022-12-31T12:50:43.310Z,0.22
2022-12-31T12:53:54.310Z,0.30
2022-12-31T12:57:06.510Z,0.30
2022-12-31T13:00:17.870Z,0.20
2022-12-31T13:04:23.735Z,0.22
2022-12-31T13:07:29.011Z,0.32
2022-12-31T13:10:49.500Z,0.20
2022-12-31T13:13:58.753Z,0.32
2022-12-31T13:17:09.994Z,0.20
2022-12-31T13:20:20.222Z,0.30
2022-12-31T13:23:34.894Z,0.30
2022-12-31T13:26:48.426Z,0.25
2022-12-31T13:29:52.462Z,0.20
2022-12-31T13:33:02.465Z,0.28
2022-12-31T13:36:08.789Z,0.25
2022-12-31T13:39:18.690Z,0.30
2022-12-31T13:42:26.418Z,0.22
2022-12-31T13:45:34.272Z,0.22
2022-12-31T13:48:45.406Z,0.17
2022-12-31T13:51:50.169Z,0.30
2022-12-31T13:55:00.532Z,0.40
2022-12-31T13:58:11.939Z,0.17
2022-12-31T14:01:19.537Z,0.20
2022-12-31T14:04:28.375Z,0.20
2022-12-31T14:07:45.197Z,0.30
2022-12-31T14:11:01.727Z,0.20
2022-12-31T14:14:16.053Z,0.30
2022-12-31T14:17:26.551Z,0.40
2022-12-31T14:20:41.045Z,0.55
2022-12-31T14:23:53.457Z,0.13
2022-12-31T14:27:01.918Z,0.20
2022-12-31T14:30:07.239Z,0.30
2022-12-31T14:33:22.456Z,0.30
2022-12-31T14:36:35.115Z,0.28
2022-12-31T14:39:49.849Z,0.25
2022-12-31T14:43:07.297Z,0.30
2022-12-31T14:46:21.335Z,0.40
2022-12-31T14:49:37.567Z,0.40
2022-12-31T14:52:50.858Z,0.30
2022-12-31T14:56:02.428Z,0.30
2022-12-31T14:59:26.629Z,0.40
2022-12-31T15:02:31.859Z,0.70
2022-12-31T15:05:36.978Z,0.20
2022-12-31T15:09:04.016Z,0.20
2022-12-31T15:12:24.500Z,0.35
2022-12-31T15:15:58.722Z,0.30
2022-12-31T15:19:48.423Z,0.30
2022-12-31T15:22:52.421Z,0.30
2022-12-31T15:25:59.729Z,0.30
2022-12-31T15:29:05.336Z,0.40
2022-12-31T15:32:19.920Z,0.30
2022-12-31T15:35:27.849Z,0.30
2022-12-31T15:38:36.466Z,0.40
2022-12-31T15:42:03.130Z,0.40
2022-12-31T15:45:08.801Z,0.30
2022-12-31T15:48:19.022Z,0.30
2022-12-31T15:51:26.477Z,0.40
2022-12-31T15:54:37.089Z,0.45
2022-12-31T15:57:42.457Z,0.45
2022-12-31T16:00:58.411Z,0.70
2022-12-31T16:04:06.139Z,0.80
2022-12-31T16:07:12.520Z,1.07
2022-12-31T16:10:20.066Z,1.30
2022-12-31T16:13:25.549Z,1.33
2022-12-31T16:16:30.378Z,1.50
2022-12-31T16:19:37.084Z,1.70
2022-12-31T16:22:43.520Z,1.63
2022-12-31T16:25:46.930Z,1.20
2022-12-31T16:28:52.421Z,1.13
2022-12-31T16:31:55.649Z,1.45
2022-12-31T16:34:59.943Z,1.40
2022-12-31T16:38:13.855Z,1.90
2022-12-31T16:41:19.733Z,2.15
2022-12-31T16:44:27.345Z,1.67
2022-12-31T16:47:34.548Z,1.63
2022-12-31T16:50:38.863Z,1.35
2022-12-31T16:53:42.898Z,1.52
2022-12-31T16:56:45.751Z,1.40
2022-12-31T16:59:53.145Z,1.80
2022-12-31T17:03:04.850Z,1.83
2022-12-31T17:06:16.497Z,1.70
2022-12-31T17:09:21.268Z,1.38
2022-12-31T17:12:24.924Z,1.88
2022-12-31T17:15:30.040Z,1.70
2022-12-31T17:18:37.893Z,1.67
2022-12-31T17:21:48.648Z,1.88
2022-12-31T17:24:52.560Z,1.50
2022-12-31T17:27:58.929Z,1.55
2022-12-31T17:31:25.705Z,1.40
2022-12-31T17:34:33.654Z,1.38
2022-12-31T17:37:37.723Z,1.40
2022-12-31T17:40:50.981Z,2.13
2022-12-31T17:43:58.214Z,2.75
2022-12-31T17:47:02.716Z,3.05
2022-12-31T17:50:20.702Z,2.92
2022-12-31T17:53:25.455Z,2.55
2022-12-31T17:56:28.188Z,3.00
2022-12-31T17:59:33.518Z,3.00
2022-12-31T18:02:36.285Z,2.45
2022-12-31T18:05:39.070Z,1.90
2022-12-31T18:08:43.109Z,1.45
2022-12-31T18:11:46.406Z,1.10
2022-12-31T18:14:49.033Z,1.40
2022-12-31T18:17:51.941Z,1.90
2022-12-31T18:20:57.853Z,2.33
2022-12-31T18:27:05.288Z,2.00
2022-12-31T18:30:09.988Z,2.20
2022-12-31T18:33:16.767Z,2.40
2022-12-31T18:36:21.991Z,2.03
2022-12-31T18:39:25.990Z,1.63
2022-12-31T18:42:29.679Z,2.20
2022-12-31T18:45:32.428Z,2.97
2022-12-31T18:48:37.001Z,2.60
2022-12-31T18:51:41.653Z,2.90
2022-12-31T18:54:48.757Z,8.38
2022-12-31T18:57:53.933Z,3.65
2022-12-31T19:00:58.961Z,3.00
2022-12-31T19:04:05.516Z,4.72
2022-12-31T19:07:10.412Z,1.90
2022-12-31T19:10:17.368Z,1.88
2022-12-31T19:13:23.589Z,1.73
2022-12-31T19:16:28.780Z,1.52
2022-12-31T19:19:35.186Z,2.05
2022-12-31T19:22:42.153Z,1.90
2022-12-31T19:25:49.637Z,1.67
2022-12-31T19:28:55.823Z,2.70
2022-12-31T19:32:02.662Z,2.20
2022-12-31T19:35:09.463Z,1.92
2022-12-31T19:38:19.203Z,2.72
2022-12-31T19:41:25.644Z,1.60
2022-12-31T19:44:30.485Z,1.50
2022-12-31T19:47:35.394Z,2.28
2022-12-31T19:50:42.328Z,2.88
2022-12-31T19:53:47.584Z,2.40
2022-12-31T19:56:54.188Z,2.70
2022-12-31T19:59:58.968Z,2.20
2022-12-31T20:03:04.251Z,2.00
2022-12-31T20:06:11.607Z,2.30
2022-12-31T20:09:16.745Z,1.73
2022-12-31T20:12:24.288Z,2.42
2022-12-31T20:15:29.995Z,2.28
2022-12-31T20:18:34.632Z,2.50
2022-12-31T20:21:39.729Z,2.30
2022-12-31T20:24:44.418Z,2.67
2022-12-31T20:27:50.658Z,2.33
2022-12-31T20:30:55.435Z,2.70
2022-12-31T20:34:00.109Z,2.47
2022-12-31T20:37:04.808Z,2.17
2022-12-31T20:40:12.047Z,2.20
2022-12-31T20:43:18.047Z,2.22
2022-12-31T20:46:25.354Z,2.45
2022-12-31T20:50:00.710Z,3.67
2022-12-31T20:52:54.247Z,4.13
2022-12-31T20:55:59.023Z,3.47
2022-12-31T20:59:05.847Z,3.00
2022-12-31T21:02:29.541Z,2.65
2022-12-31T21:05:40.752Z,2.30
2022-12-31T21:08:46.280Z,2.80
2022-12-31T21:12:07.703Z,2.88
2022-12-31T21:15:14.212Z,3.95
2022-12-31T21:18:19.587Z,3.85
2022-12-31T21:21:24.909Z,4.68
2022-12-31T21:24:30.322Z,3.17
2022-12-31T21:27:35.180Z,3.72
2022-12-31T21:30:42.795Z,4.40
2022-12-31T21:33:47.839Z,4.57
2022-12-31T21:36:52.581Z,4.20
2022-12-31T21:39:57.331Z,6.40
2022-12-31T21:43:03.959Z,7.05
2022-12-31T21:46:10.557Z,6.97
2022-12-31T21:49:15.189Z,6.78
2022-12-31T21:52:30.718Z,6.38
2022-12-31T21:55:52.047Z,6.45
2022-12-31T21:59:14.838Z,7.72
2022-12-31T22:02:37.994Z,6.35
2022-12-31T22:05:50.374Z,6.07
2022-12-31T22:08:58.951Z,5.65
2022-12-31T22:12:03.951Z,6.15
2022-12-31T22:15:15.224Z,3.67
2022-12-31T22:18:22.509Z,3.50
2022-12-31T22:21:28.319Z,3.67
2022-12-31T22:24:33.272Z,2.95
2022-12-31T22:27:39.407Z,2.70
2022-12-31T22:30:44.321Z,2.33
2022-12-31T22:33:50.713Z,2.75
2022-12-31T22:36:55.820Z,2.60
2022-12-31T22:40:00.423Z,2.65
2022-12-31T22:43:05.105Z,3.75
2022-12-31T22:46:11.993Z,8.98
2022-12-31T22:49:20.612Z,4.15
2022-12-31T22:52:25.781Z,3.17
2022-12-31T22:55:32.829Z,3.67
2022-12-31T22:58:38.323Z,5.43
2022-12-31T23:01:43.394Z,3.88
2022-12-31T23:04:50.256Z,5.65
2022-12-31T23:07:55.218Z,8.05
2022-12-31T23:11:06.157Z,12.13
2022-12-31T23:14:33.246Z,20.65
2022-12-31T23:17:54.705Z,42.05
2022-12-31T23:21:20.542Z,39.05
2022-12-31T23:24:28.184Z,57.72
2022-12-31T23:27:33.122Z,46.13
2022-12-31T23:30:41.614Z,47.45
2022-12-31T23:33:47.009Z,43.88
2022-12-31T23:36:55.246Z,48.83
2022-12-31T23:40:00.408Z,55.83
2022-12-31T23:43:06.574Z,58.78
2022-12-31T23:46:12.574Z,52.65
2022-12-31T23:49:17.419Z,59.25
2022-12-31T23:52:24.013Z,44.72
2022-12-31T23:55:30.764Z,29.33
2022-12-31T23:58:37.479Z,32.90
